sensor_id;sensor_type;location;lat;lon;timestamp;P1;durP1;ratioP1;P2;durP2;ratioP2
58974;SDS011;44751;52.236;5.178;2022-11-10T00:01:02;12.05;;;2.83;;
58974;SDS011;44751;52.236;5.178;2022-11-10T00:03:30;12.90;;;3.70;;
58974;SDS011;44751;52.236;5.178;2022-11-10T00:05:56;16.02;;;3.47;;
58974;SDS011;44751;52.236;5.178;2022-11-10T00:08:23;16.48;;;3.50;;
58974;SDS011;44751;52.236;5.178;2022-11-10T00:10:52;13.35;;;3.13;;
58974;SDS011;44751;52.236;5.178;2022-11-10T00:13:26;19.73;;;4.57;;
58974;SDS011;44751;52.236;5.178;2022-11-10T00:16:02;17.15;;;3.58;;
58974;SDS011;44751;52.236;5.178;2022-11-10T00:18:47;13.82;;;3.50;;
58974;SDS011;44751;52.236;5.178;2022-11-10T00:21:14;16.83;;;3.25;;
58974;SDS011;44751;52.236;5.178;2022-11-10T00:23:42;16.23;;;3.92;;
58974;SDS011;44751;52.236;5.178;2022-11-10T00:26:12;19.27;;;3.78;;
58974;SDS011;44751;52.236;5.178;2022-11-10T00:28:44;13.02;;;3.83;;
58974;SDS011;44751;52.236;5.178;2022-11-10T00:31:11;18.63;;;4.22;;
58974;SDS011;44751;52.236;5.178;2022-11-10T00:33:39;15.75;;;3.95;;
58974;SDS011;44751;52.236;5.178;2022-11-10T00:36:09;17.35;;;3.75;;
58974;SDS011;44751;52.236;5.178;2022-11-10T00:38:36;18.77;;;4.47;;
58974;SDS011;44751;52.236;5.178;2022-11-10T00:41:03;17.42;;;3.45;;
58974;SDS011;44751;52.236;5.178;2022-11-10T00:43:30;17.45;;;3.90;;
58974;SDS011;44751;52.236;5.178;2022-11-10T00:45:56;17.83;;;3.85;;
58974;SDS011;44751;52.236;5.178;2022-11-10T00:48:23;20.85;;;3.80;;
58974;SDS011;44751;52.236;5.178;2022-11-10T00:50:50;21.70;;;4.20;;
58974;SDS011;44751;52.236;5.178;2022-11-10T00:53:16;17.05;;;3.75;;
58974;SDS011;44751;52.236;5.178;2022-11-10T00:55:43;23.10;;;4.18;;
58974;SDS011;44751;52.236;5.178;2022-11-10T00:58:09;15.77;;;3.25;;
58974;SDS011;44751;52.236;5.178;2022-11-10T01:00:36;14.50;;;3.38;;
58974;SDS011;44751;52.236;5.178;2022-11-10T01:03:13;17.25;;;3.55;;
58974;SDS011;44751;52.236;5.178;2022-11-10T01:05:41;15.43;;;3.63;;
58974;SDS011;44751;52.236;5.178;2022-11-10T01:08:08;15.05;;;3.25;;
58974;SDS011;44751;52.236;5.178;2022-11-10T01:10:36;17.70;;;3.33;;
58974;SDS011;44751;52.236;5.178;2022-11-10T01:13:04;12.75;;;3.53;;
58974;SDS011;44751;52.236;5.178;2022-11-10T01:15:31;16.45;;;4.07;;
58974;SDS011;44751;52.236;5.178;2022-11-10T01:17:57;16.77;;;3.30;;
58974;SDS011;44751;52.236;5.178;2022-11-10T01:20:23;18.00;;;3.33;;
58974;SDS011;44751;52.236;5.178;2022-11-10T01:22:50;12.15;;;3.15;;
58974;SDS011;44751;52.236;5.178;2022-11-10T01:25:17;20.15;;;4.60;;
58974;SDS011;44751;52.236;5.178;2022-11-10T01:27:45;15.93;;;3.60;;
58974;SDS011;44751;52.236;5.178;2022-11-10T01:30:11;16.63;;;3.20;;
58974;SDS011;44751;52.236;5.178;2022-11-10T01:32:38;11.50;;;3.35;;
58974;SDS011;44751;52.236;5.178;2022-11-10T01:35:04;17.73;;;3.88;;
58974;SDS011;44751;52.236;5.178;2022-11-10T01:37:31;18.20;;;3.75;;
58974;SDS011;44751;52.236;5.178;2022-11-10T01:40:04;15.85;;;3.50;;
58974;SDS011;44751;52.236;5.178;2022-11-10T01:42:48;15.32;;;3.10;;
58974;SDS011;44751;52.236;5.178;2022-11-10T01:47:49;20.83;;;3.60;;
58974;SDS011;44751;52.236;5.178;2022-11-10T01:50:18;14.65;;;3.70;;
58974;SDS011;44751;52.236;5.178;2022-11-10T01:52:47;15.98;;;3.60;;
58974;SDS011;44751;52.236;5.178;2022-11-10T01:55:17;16.42;;;3.60;;
58974;SDS011;44751;52.236;5.178;2022-11-10T01:57:43;27.25;;;3.97;;
58974;SDS011;44751;52.236;5.178;2022-11-10T02:00:10;18.05;;;3.55;;
58974;SDS011;44751;52.236;5.178;2022-11-10T02:02:49;17.83;;;4.13;;
58974;SDS011;44751;52.236;5.178;2022-11-10T02:05:23;17.15;;;3.72;;
58974;SDS011;44751;52.236;5.178;2022-11-10T02:07:51;15.73;;;3.50;;
58974;SDS011;44751;52.236;5.178;2022-11-10T02:10:18;13.27;;;3.47;;
58974;SDS011;44751;52.236;5.178;2022-11-10T02:12:46;19.25;;;3.38;;
58974;SDS011;44751;52.236;5.178;2022-11-10T02:15:14;19.65;;;4.43;;
58974;SDS011;44751;52.236;5.178;2022-11-10T02:17:42;13.98;;;3.72;;
58974;SDS011;44751;52.236;5.178;2022-11-10T02:20:13;14.32;;;3.83;;
58974;SDS011;44751;52.236;5.178;2022-11-10T02:22:44;14.57;;;3.85;;
58974;SDS011;44751;52.236;5.178;2022-11-10T02:25:11;14.82;;;3.58;;
58974;SDS011;44751;52.236;5.178;2022-11-10T02:27:42;19.38;;;4.32;;
58974;SDS011;44751;52.236;5.178;2022-11-10T02:30:09;18.02;;;4.00;;
58974;SDS011;44751;52.236;5.178;2022-11-10T02:32:36;17.92;;;3.88;;
58974;SDS011;44751;52.236;5.178;2022-11-10T02:35:04;22.15;;;3.80;;
58974;SDS011;44751;52.236;5.178;2022-11-10T02:37:30;18.17;;;3.65;;
58974;SDS011;44751;52.236;5.178;2022-11-10T02:39:57;29.30;;;4.60;;
58974;SDS011;44751;52.236;5.178;2022-11-10T02:42:24;15.52;;;3.35;;
58974;SDS011;44751;52.236;5.178;2022-11-10T02:44:50;17.52;;;3.83;;
58974;SDS011;44751;52.236;5.178;2022-11-10T02:47:19;20.85;;;3.67;;
58974;SDS011;44751;52.236;5.178;2022-11-10T02:49:48;20.42;;;4.22;;
58974;SDS011;44751;52.236;5.178;2022-11-10T02:52:15;22.42;;;3.83;;
58974;SDS011;44751;52.236;5.178;2022-11-10T02:54:41;24.73;;;4.10;;
58974;SDS011;44751;52.236;5.178;2022-11-10T02:57:08;19.55;;;4.18;;
58974;SDS011;44751;52.236;5.178;2022-11-10T02:59:36;20.73;;;4.22;;
58974;SDS011;44751;52.236;5.178;2022-11-10T03:02:07;24.63;;;4.10;;
58974;SDS011;44751;52.236;5.178;2022-11-10T03:04:33;20.58;;;4.00;;
58974;SDS011;44751;52.236;5.178;2022-11-10T03:07:00;23.20;;;4.85;;
58974;SDS011;44751;52.236;5.178;2022-11-10T03:09:26;28.95;;;4.90;;
58974;SDS011;44751;52.236;5.178;2022-11-10T03:11:55;26.13;;;4.25;;
58974;SDS011;44751;52.236;5.178;2022-11-10T03:14:23;26.02;;;4.72;;
58974;SDS011;44751;52.236;5.178;2022-11-10T03:16:50;25.30;;;4.82;;
58974;SDS011;44751;52.236;5.178;2022-11-10T03:19:17;26.08;;;5.05;;
58974;SDS011;44751;52.236;5.178;2022-11-10T03:21:44;23.88;;;4.60;;
58974;SDS011;44751;52.236;5.178;2022-11-10T03:24:10;19.13;;;4.53;;
58974;SDS011;44751;52.236;5.178;2022-11-10T03:26:43;21.25;;;3.97;;
58974;SDS011;44751;52.236;5.178;2022-11-10T03:29:09;22.73;;;4.65;;
58974;SDS011;44751;52.236;5.178;2022-11-10T03:31:35;22.60;;;4.72;;
58974;SDS011;44751;52.236;5.178;2022-11-10T03:34:02;31.30;;;6.10;;
58974;SDS011;44751;52.236;5.178;2022-11-10T03:36:29;18.20;;;4.38;;
58974;SDS011;44751;52.236;5.178;2022-11-10T03:38:56;16.75;;;4.32;;
58974;SDS011;44751;52.236;5.178;2022-11-10T03:41:22;19.55;;;4.22;;
58974;SDS011;44751;52.236;5.178;2022-11-10T03:43:48;21.33;;;3.85;;
58974;SDS011;44751;52.236;5.178;2022-11-10T03:46:15;19.77;;;4.63;;
58974;SDS011;44751;52.236;5.178;2022-11-10T03:48:42;22.52;;;4.63;;
58974;SDS011;44751;52.236;5.178;2022-11-10T03:51:08;18.73;;;3.92;;
58974;SDS011;44751;52.236;5.178;2022-11-10T03:53:35;21.38;;;3.97;;
58974;SDS011;44751;52.236;5.178;2022-11-10T03:56:02;18.67;;;4.20;;
58974;SDS011;44751;52.236;5.178;2022-11-10T03:58:30;19.60;;;4.10;;
58974;SDS011;44751;52.236;5.178;2022-11-10T04:00:57;18.77;;;3.78;;
58974;SDS011;44751;52.236;5.178;2022-11-10T04:03:23;23.10;;;4.57;;
58974;SDS011;44751;52.236;5.178;2022-11-10T04:05:50;21.42;;;3.70;;
58974;SDS011;44751;52.236;5.178;2022-11-10T04:08:34;21.92;;;4.05;;
58974;SDS011;44751;52.236;5.178;2022-11-10T04:11:18;23.75;;;4.28;;
58974;SDS011;44751;52.236;5.178;2022-11-10T04:14:01;21.65;;;4.38;;
58974;SDS011;44751;52.236;5.178;2022-11-10T04:16:45;21.92;;;4.00;;
58974;SDS011;44751;52.236;5.178;2022-11-10T04:19:13;23.70;;;4.07;;
58974;SDS011;44751;52.236;5.178;2022-11-10T04:21:40;23.98;;;4.28;;
58974;SDS011;44751;52.236;5.178;2022-11-10T04:24:07;18.55;;;3.97;;
58974;SDS011;44751;52.236;5.178;2022-11-10T04:26:34;19.17;;;4.50;;
58974;SDS011;44751;52.236;5.178;2022-11-10T04:29:03;20.10;;;4.35;;
58974;SDS011;44751;52.236;5.178;2022-11-10T04:31:32;17.60;;;3.85;;
58974;SDS011;44751;52.236;5.178;2022-11-10T04:34:02;21.15;;;4.50;;
58974;SDS011;44751;52.236;5.178;2022-11-10T04:36:30;14.18;;;4.18;;
58974;SDS011;44751;52.236;5.178;2022-11-10T04:38:58;19.23;;;4.35;;
58974;SDS011;44751;52.236;5.178;2022-11-10T04:41:25;20.48;;;4.70;;
58974;SDS011;44751;52.236;5.178;2022-11-10T04:43:52;27.38;;;4.97;;
58974;SDS011;44751;52.236;5.178;2022-11-10T04:46:25;19.65;;;4.82;;
58974;SDS011;44751;52.236;5.178;2022-11-10T04:48:51;16.92;;;5.28;;
58974;SDS011;44751;52.236;5.178;2022-11-10T04:51:20;39.42;;;6.60;;
58974;SDS011;44751;52.236;5.178;2022-11-10T04:53:48;19.40;;;4.75;;
58974;SDS011;44751;52.236;5.178;2022-11-10T04:56:18;12.80;;;5.10;;
58974;SDS011;44751;52.236;5.178;2022-11-10T04:58:46;19.73;;;5.00;;
58974;SDS011;44751;52.236;5.178;2022-11-10T05:01:18;24.30;;;6.22;;
58974;SDS011;44751;52.236;5.178;2022-11-10T05:03:48;15.45;;;5.07;;
58974;SDS011;44751;52.236;5.178;2022-11-10T05:06:15;21.88;;;5.85;;
58974;SDS011;44751;52.236;5.178;2022-11-10T05:08:42;21.20;;;5.68;;
58974;SDS011;44751;52.236;5.178;2022-11-10T05:11:10;19.00;;;5.65;;
58974;SDS011;44751;52.236;5.178;2022-11-10T05:13:37;15.70;;;5.05;;
58974;SDS011;44751;52.236;5.178;2022-11-10T05:16:04;20.02;;;5.05;;
58974;SDS011;44751;52.236;5.178;2022-11-10T05:18:31;21.13;;;5.53;;
58974;SDS011;44751;52.236;5.178;2022-11-10T05:20:57;22.30;;;6.18;;
58974;SDS011;44751;52.236;5.178;2022-11-10T05:23:24;25.75;;;5.63;;
58974;SDS011;44751;52.236;5.178;2022-11-10T05:28:39;22.02;;;4.88;;
58974;SDS011;44751;52.236;5.178;2022-11-10T05:31:07;19.45;;;5.05;;
58974;SDS011;44751;52.236;5.178;2022-11-10T05:33:34;23.35;;;5.63;;
58974;SDS011;44751;52.236;5.178;2022-11-10T05:36:02;25.60;;;6.13;;
58974;SDS011;44751;52.236;5.178;2022-11-10T05:38:29;26.27;;;5.45;;
58974;SDS011;44751;52.236;5.178;2022-11-10T05:40:55;24.13;;;5.93;;
58974;SDS011;44751;52.236;5.178;2022-11-10T05:43:22;21.15;;;5.57;;
58974;SDS011;44751;52.236;5.178;2022-11-10T05:45:48;23.23;;;5.43;;
58974;SDS011;44751;52.236;5.178;2022-11-10T05:48:15;28.67;;;6.22;;
58974;SDS011;44751;52.236;5.178;2022-11-10T05:50:42;25.65;;;5.88;;
58974;SDS011;44751;52.236;5.178;2022-11-10T05:53:09;25.05;;;6.03;;
58974;SDS011;44751;52.236;5.178;2022-11-10T05:55:36;22.30;;;5.93;;
58974;SDS011;44751;52.236;5.178;2022-11-10T05:58:03;25.25;;;6.43;;
58974;SDS011;44751;52.236;5.178;2022-11-10T06:00:30;21.67;;;5.88;;
58974;SDS011;44751;52.236;5.178;2022-11-10T06:03:13;19.92;;;5.18;;
58974;SDS011;44751;52.236;5.178;2022-11-10T06:05:50;16.80;;;5.10;;
58974;SDS011;44751;52.236;5.178;2022-11-10T06:08:17;24.05;;;6.18;;
58974;SDS011;44751;52.236;5.178;2022-11-10T06:10:44;22.23;;;5.38;;
58974;SDS011;44751;52.236;5.178;2022-11-10T06:13:11;25.35;;;6.43;;
58974;SDS011;44751;52.236;5.178;2022-11-10T06:15:37;24.40;;;5.82;;
58974;SDS011;44751;52.236;5.178;2022-11-10T06:18:04;25.15;;;6.45;;
58974;SDS011;44751;52.236;5.178;2022-11-10T06:20:31;18.80;;;5.40;;
58974;SDS011;44751;52.236;5.178;2022-11-10T06:25:30;19.33;;;4.97;;
58974;SDS011;44751;52.236;5.178;2022-11-10T06:27:58;24.75;;;5.00;;
58974;SDS011;44751;52.236;5.178;2022-11-10T06:30:26;20.58;;;6.05;;
58974;SDS011;44751;52.236;5.178;2022-11-10T06:32:53;25.23;;;5.97;;
58974;SDS011;44751;52.236;5.178;2022-11-10T06:35:20;20.48;;;5.15;;
58974;SDS011;44751;52.236;5.178;2022-11-10T06:37:57;25.42;;;5.75;;
58974;SDS011;44751;52.236;5.178;2022-11-10T06:40:28;20.27;;;4.20;;
58974;SDS011;44751;52.236;5.178;2022-11-10T06:42:55;21.00;;;4.78;;
58974;SDS011;44751;52.236;5.178;2022-11-10T06:45:24;23.95;;;4.72;;
58974;SDS011;44751;52.236;5.178;2022-11-10T06:48:02;19.65;;;5.15;;
58974;SDS011;44751;52.236;5.178;2022-11-10T06:50:33;19.90;;;4.28;;
58974;SDS011;44751;52.236;5.178;2022-11-10T06:53:00;20.45;;;4.35;;
58974;SDS011;44751;52.236;5.178;2022-11-10T06:55:27;18.50;;;4.78;;
58974;SDS011;44751;52.236;5.178;2022-11-10T06:57:54;21.60;;;5.43;;
58974;SDS011;44751;52.236;5.178;2022-11-10T07:00:21;21.75;;;4.85;;
58974;SDS011;44751;52.236;5.178;2022-11-10T07:02:57;21.98;;;5.07;;
58974;SDS011;44751;52.236;5.178;2022-11-10T07:05:33;20.38;;;5.00;;
58974;SDS011;44751;52.236;5.178;2022-11-10T07:08:05;22.95;;;4.80;;
58974;SDS011;44751;52.236;5.178;2022-11-10T07:10:40;23.33;;;5.47;;
58974;SDS011;44751;52.236;5.178;2022-11-10T07:13:10;19.17;;;4.80;;
58974;SDS011;44751;52.236;5.178;2022-11-10T07:15:37;25.92;;;5.90;;
58974;SDS011;44751;52.236;5.178;2022-11-10T07:18:03;23.83;;;4.68;;
58974;SDS011;44751;52.236;5.178;2022-11-10T07:20:30;20.13;;;5.38;;
58974;SDS011;44751;52.236;5.178;2022-11-10T07:22:57;17.38;;;4.70;;
58974;SDS011;44751;52.236;5.178;2022-11-10T07:25:28;21.77;;;4.60;;
58974;SDS011;44751;52.236;5.178;2022-11-10T07:27:56;18.85;;;5.07;;
58974;SDS011;44751;52.236;5.178;2022-11-10T07:30:25;18.88;;;5.40;;
58974;SDS011;44751;52.236;5.178;2022-11-10T07:32:56;21.38;;;4.28;;
58974;SDS011;44751;52.236;5.178;2022-11-10T07:35:24;24.48;;;4.40;;
58974;SDS011;44751;52.236;5.178;2022-11-10T07:37:52;18.58;;;4.20;;
58974;SDS011;44751;52.236;5.178;2022-11-10T07:40:20;20.15;;;4.95;;
58974;SDS011;44751;52.236;5.178;2022-11-10T07:42:48;20.27;;;4.82;;
58974;SDS011;44751;52.236;5.178;2022-11-10T07:45:15;16.17;;;4.47;;
58974;SDS011;44751;52.236;5.178;2022-11-10T07:47:41;21.45;;;5.60;;
58974;SDS011;44751;52.236;5.178;2022-11-10T07:50:08;18.17;;;4.72;;
58974;SDS011;44751;52.236;5.178;2022-11-10T07:52:35;22.13;;;5.00;;
58974;SDS011;44751;52.236;5.178;2022-11-10T07:55:01;22.40;;;4.85;;
58974;SDS011;44751;52.236;5.178;2022-11-10T07:57:28;18.17;;;4.72;;
58974;SDS011;44751;52.236;5.178;2022-11-10T07:59:54;17.55;;;4.38;;
58974;SDS011;44751;52.236;5.178;2022-11-10T08:02:21;22.95;;;5.22;;
58974;SDS011;44751;52.236;5.178;2022-11-10T08:04:48;24.15;;;5.40;;
58974;SDS011;44751;52.236;5.178;2022-11-10T08:07:15;17.20;;;4.80;;
58974;SDS011;44751;52.236;5.178;2022-11-10T08:09:43;20.73;;;4.28;;
58974;SDS011;44751;52.236;5.178;2022-11-10T08:12:09;21.77;;;4.82;;
58974;SDS011;44751;52.236;5.178;2022-11-10T08:14:36;19.52;;;3.83;;
58974;SDS011;44751;52.236;5.178;2022-11-10T08:17:02;16.48;;;4.45;;
58974;SDS011;44751;52.236;5.178;2022-11-10T08:19:29;15.43;;;4.70;;
58974;SDS011;44751;52.236;5.178;2022-11-10T08:21:58;22.17;;;4.57;;
58974;SDS011;44751;52.236;5.178;2022-11-10T08:24:25;18.98;;;4.60;;
58974;SDS011;44751;52.236;5.178;2022-11-10T08:26:51;20.88;;;5.13;;
58974;SDS011;44751;52.236;5.178;2022-11-10T08:29:18;22.00;;;4.60;;
58974;SDS011;44751;52.236;5.178;2022-11-10T08:31:44;17.92;;;5.30;;
58974;SDS011;44751;52.236;5.178;2022-11-10T08:34:13;21.75;;;4.82;;
58974;SDS011;44751;52.236;5.178;2022-11-10T08:36:42;16.17;;;3.72;;
58974;SDS011;44751;52.236;5.178;2022-11-10T08:39:09;22.10;;;6.00;;
58974;SDS011;44751;52.236;5.178;2022-11-10T08:41:36;20.17;;;5.15;;
58974;SDS011;44751;52.236;5.178;2022-11-10T08:44:02;18.13;;;5.55;;
58974;SDS011;44751;52.236;5.178;2022-11-10T08:46:29;15.48;;;4.03;;
58974;SDS011;44751;52.236;5.178;2022-11-10T08:48:55;22.00;;;4.18;;
58974;SDS011;44751;52.236;5.178;2022-11-10T08:51:22;20.50;;;5.00;;
58974;SDS011;44751;52.236;5.178;2022-11-10T08:53:48;23.48;;;5.15;;
58974;SDS011;44751;52.236;5.178;2022-11-10T08:56:15;20.63;;;4.55;;
58974;SDS011;44751;52.236;5.178;2022-11-10T08:58:41;14.95;;;3.75;;
58974;SDS011;44751;52.236;5.178;2022-11-10T09:01:08;17.65;;;3.90;;
58974;SDS011;44751;52.236;5.178;2022-11-10T09:03:40;21.83;;;4.03;;
58974;SDS011;44751;52.236;5.178;2022-11-10T09:06:06;17.95;;;3.60;;
58974;SDS011;44751;52.236;5.178;2022-11-10T09:08:33;18.65;;;3.83;;
58974;SDS011;44751;52.236;5.178;2022-11-10T09:11:02;21.00;;;4.15;;
58974;SDS011;44751;52.236;5.178;2022-11-10T09:13:29;15.90;;;4.15;;
58974;SDS011;44751;52.236;5.178;2022-11-10T09:16:03;16.90;;;3.60;;
58974;SDS011;44751;52.236;5.178;2022-11-10T09:18:30;18.90;;;4.57;;
58974;SDS011;44751;52.236;5.178;2022-11-10T09:20:57;22.38;;;4.60;;
58974;SDS011;44751;52.236;5.178;2022-11-10T09:23:23;17.10;;;4.07;;
58974;SDS011;44751;52.236;5.178;2022-11-10T09:25:51;15.38;;;3.40;;
58974;SDS011;44751;52.236;5.178;2022-11-10T09:28:19;15.07;;;4.03;;
58974;SDS011;44751;52.236;5.178;2022-11-10T09:30:47;21.73;;;4.45;;
58974;SDS011;44751;52.236;5.178;2022-11-10T09:33:16;16.85;;;3.53;;
58974;SDS011;44751;52.236;5.178;2022-11-10T09:35:42;19.23;;;4.50;;
58974;SDS011;44751;52.236;5.178;2022-11-10T09:38:09;21.48;;;4.25;;
58974;SDS011;44751;52.236;5.178;2022-11-10T09:41:10;18.17;;;4.20;;
58974;SDS011;44751;52.236;5.178;2022-11-10T09:46:39;16.23;;;3.83;;
58974;SDS011;44751;52.236;5.178;2022-11-10T09:49:15;16.80;;;4.05;;
58974;SDS011;44751;52.236;5.178;2022-11-10T09:51:54;17.98;;;3.65;;
58974;SDS011;44751;52.236;5.178;2022-11-10T09:54:38;21.33;;;3.70;;
58974;SDS011;44751;52.236;5.178;2022-11-10T09:57:17;16.65;;;3.92;;
58974;SDS011;44751;52.236;5.178;2022-11-10T09:59:48;14.07;;;3.50;;
58974;SDS011;44751;52.236;5.178;2022-11-10T10:07:30;16.40;;;3.28;;
58974;SDS011;44751;52.236;5.178;2022-11-10T10:10:11;13.65;;;3.22;;
58974;SDS011;44751;52.236;5.178;2022-11-10T10:15:28;15.57;;;3.70;;
58974;SDS011;44751;52.236;5.178;2022-11-10T10:20:35;17.70;;;3.75;;
58974;SDS011;44751;52.236;5.178;2022-11-10T10:26:15;18.42;;;3.90;;
58974;SDS011;44751;52.236;5.178;2022-11-10T10:28:45;17.40;;;3.40;;
58974;SDS011;44751;52.236;5.178;2022-11-10T10:31:18;21.58;;;3.38;;
58974;SDS011;44751;52.236;5.178;2022-11-10T10:33:47;15.80;;;3.75;;
58974;SDS011;44751;52.236;5.178;2022-11-10T10:36:24;12.48;;;3.40;;
58974;SDS011;44751;52.236;5.178;2022-11-10T10:38:54;18.70;;;3.53;;
58974;SDS011;44751;52.236;5.178;2022-11-10T10:41:32;21.40;;;3.78;;
58974;SDS011;44751;52.236;5.178;2022-11-10T10:44:01;17.33;;;3.63;;
58974;SDS011;44751;52.236;5.178;2022-11-10T10:46:42;16.67;;;3.80;;
58974;SDS011;44751;52.236;5.178;2022-11-10T10:49:35;13.15;;;3.58;;
58974;SDS011;44751;52.236;5.178;2022-11-10T10:52:14;13.70;;;3.03;;
58974;SDS011;44751;52.236;5.178;2022-11-10T10:54:44;21.42;;;4.15;;
58974;SDS011;44751;52.236;5.178;2022-11-10T10:59:49;24.73;;;5.20;;
58974;SDS011;44751;52.236;5.178;2022-11-10T11:02:28;19.05;;;4.40;;
58974;SDS011;44751;52.236;5.178;2022-11-10T11:05:13;20.20;;;3.90;;
58974;SDS011;44751;52.236;5.178;2022-11-10T11:07:54;15.07;;;3.50;;
58974;SDS011;44751;52.236;5.178;2022-11-10T11:10:23;17.67;;;3.60;;
58974;SDS011;44751;52.236;5.178;2022-11-10T11:12:51;28.25;;;3.72;;
58974;SDS011;44751;52.236;5.178;2022-11-10T11:15:25;13.05;;;2.70;;
58974;SDS011;44751;52.236;5.178;2022-11-10T11:18:00;17.38;;;3.47;;
58974;SDS011;44751;52.236;5.178;2022-11-10T11:20:42;15.88;;;2.72;;
58974;SDS011;44751;52.236;5.178;2022-11-10T11:26:19;15.02;;;3.13;;
58974;SDS011;44751;52.236;5.178;2022-11-10T11:32:29;16.80;;;3.25;;
58974;SDS011;44751;52.236;5.178;2022-11-10T11:34:48;16.35;;;2.97;;
58974;SDS011;44751;52.236;5.178;2022-11-10T11:51:27;15.23;;;3.53;;
58974;SDS011;44751;52.236;5.178;2022-11-10T11:56:43;14.48;;;3.38;;
58974;SDS011;44751;52.236;5.178;2022-11-10T12:07:45;20.20;;;3.20;;
58974;SDS011;44751;52.236;5.178;2022-11-10T12:13:28;16.25;;;3.42;;
58974;SDS011;44751;52.236;5.178;2022-11-10T12:18:57;12.63;;;2.63;;
58974;SDS011;44751;52.236;5.178;2022-11-10T12:26:53;19.83;;;3.33;;
58974;SDS011;44751;52.236;5.178;2022-11-10T12:32:08;16.40;;;3.30;;
58974;SDS011;44751;52.236;5.178;2022-11-10T12:34:46;12.37;;;3.00;;
58974;SDS011;44751;52.236;5.178;2022-11-10T12:37:18;11.20;;;2.42;;
58974;SDS011;44751;52.236;5.178;2022-11-10T12:42:37;15.35;;;3.55;;
58974;SDS011;44751;52.236;5.178;2022-11-10T12:45:13;17.15;;;3.88;;
58974;SDS011;44751;52.236;5.178;2022-11-10T12:47:45;16.15;;;3.33;;
58974;SDS011;44751;52.236;5.178;2022-11-10T12:50:56;17.13;;;3.50;;
58974;SDS011;44751;52.236;5.178;2022-11-10T12:53:25;13.48;;;3.10;;
58974;SDS011;44751;52.236;5.178;2022-11-10T12:55:56;13.88;;;3.10;;
58974;SDS011;44751;52.236;5.178;2022-11-10T12:58:26;20.55;;;3.53;;
58974;SDS011;44751;52.236;5.178;2022-11-10T13:00:58;12.65;;;3.30;;
58974;SDS011;44751;52.236;5.178;2022-11-10T13:03:35;12.43;;;2.92;;
58974;SDS011;44751;52.236;5.178;2022-11-10T13:06:04;10.40;;;3.20;;
58974;SDS011;44751;52.236;5.178;2022-11-10T13:08:47;11.20;;;2.80;;
58974;SDS011;44751;52.236;5.178;2022-11-10T13:13:51;15.05;;;3.33;;
58974;SDS011;44751;52.236;5.178;2022-11-10T13:19:03;15.30;;;2.97;;
58974;SDS011;44751;52.236;5.178;2022-11-10T13:24:22;15.07;;;3.10;;
58974;SDS011;44751;52.236;5.178;2022-11-10T13:26:51;14.02;;;3.13;;
58974;SDS011;44751;52.236;5.178;2022-11-10T13:34:42;13.13;;;2.85;;
58974;SDS011;44751;52.236;5.178;2022-11-10T13:48:29;15.50;;;2.85;;
58974;SDS011;44751;52.236;5.178;2022-11-10T13:59:30;13.25;;;2.35;;
58974;SDS011;44751;52.236;5.178;2022-11-10T14:04:56;13.18;;;2.58;;
58974;SDS011;44751;52.236;5.178;2022-11-10T14:07:23;14.27;;;2.83;;
58974;SDS011;44751;52.236;5.178;2022-11-10T14:09:52;9.65;;;2.30;;
58974;SDS011;44751;52.236;5.178;2022-11-10T14:15:24;14.13;;;2.58;;
58974;SDS011;44751;52.236;5.178;2022-11-10T14:18:02;14.27;;;3.22;;
58974;SDS011;44751;52.236;5.178;2022-11-10T14:20:43;11.93;;;2.58;;
58974;SDS011;44751;52.236;5.178;2022-11-10T14:23:21;11.98;;;2.50;;
58974;SDS011;44751;52.236;5.178;2022-11-10T14:25:58;10.95;;;2.72;;
58974;SDS011;44751;52.236;5.178;2022-11-10T14:28:29;12.75;;;2.15;;
58974;SDS011;44751;52.236;5.178;2022-11-10T14:30:57;12.20;;;2.58;;
58974;SDS011;44751;52.236;5.178;2022-11-10T14:33:36;13.85;;;2.33;;
58974;SDS011;44751;52.236;5.178;2022-11-10T14:36:03;11.23;;;2.38;;
58974;SDS011;44751;52.236;5.178;2022-11-10T14:38:32;14.40;;;2.30;;
58974;SDS011;44751;52.236;5.178;2022-11-10T14:41:01;13.93;;;2.58;;
58974;SDS011;44751;52.236;5.178;2022-11-10T14:43:34;9.98;;;2.15;;
58974;SDS011;44751;52.236;5.178;2022-11-10T14:46:03;12.70;;;2.25;;
58974;SDS011;44751;52.236;5.178;2022-11-10T14:48:35;9.43;;;2.20;;
58974;SDS011;44751;52.236;5.178;2022-11-10T14:51:03;12.55;;;3.17;;
58974;SDS011;44751;52.236;5.178;2022-11-10T14:53:34;10.98;;;2.53;;
58974;SDS011;44751;52.236;5.178;2022-11-10T14:56:05;14.05;;;2.80;;
58974;SDS011;44751;52.236;5.178;2022-11-10T14:58:39;18.02;;;3.20;;
58974;SDS011;44751;52.236;5.178;2022-11-10T15:01:25;9.00;;;2.95;;
58974;SDS011;44751;52.236;5.178;2022-11-10T15:03:57;10.40;;;2.45;;
58974;SDS011;44751;52.236;5.178;2022-11-10T15:06:25;12.75;;;3.00;;
58974;SDS011;44751;52.236;5.178;2022-11-10T15:08:52;12.38;;;3.08;;
58974;SDS011;44751;52.236;5.178;2022-11-10T15:11:34;17.27;;;3.25;;
58974;SDS011;44751;52.236;5.178;2022-11-10T15:17:03;10.85;;;3.08;;
58974;SDS011;44751;52.236;5.178;2022-11-10T15:19:35;14.18;;;3.03;;
58974;SDS011;44751;52.236;5.178;2022-11-10T15:24:42;9.70;;;3.08;;
58974;SDS011;44751;52.236;5.178;2022-11-10T15:27:32;9.65;;;2.60;;
58974;SDS011;44751;52.236;5.178;2022-11-10T15:29:58;12.05;;;2.83;;
58974;SDS011;44751;52.236;5.178;2022-11-10T15:35:26;10.85;;;2.30;;
58974;SDS011;44751;52.236;5.178;2022-11-10T15:40:49;8.13;;;2.00;;
58974;SDS011;44751;52.236;5.178;2022-11-10T15:45:53;9.75;;;2.15;;
58974;SDS011;44751;52.236;5.178;2022-11-10T15:48:23;9.48;;;2.22;;
58974;SDS011;44751;52.236;5.178;2022-11-10T15:50:53;12.77;;;2.72;;
58974;SDS011;44751;52.236;5.178;2022-11-10T15:53:29;10.02;;;2.22;;
58974;SDS011;44751;52.236;5.178;2022-11-10T15:56:02;11.63;;;2.28;;
58974;SDS011;44751;52.236;5.178;2022-11-10T15:58:30;8.68;;;2.60;;
58974;SDS011;44751;52.236;5.178;2022-11-10T16:00:58;11.23;;;2.75;;
58974;SDS011;44751;52.236;5.178;2022-11-10T16:03:25;14.35;;;5.53;;
58974;SDS011;44751;52.236;5.178;2022-11-10T16:05:52;9.45;;;2.33;;
58974;SDS011;44751;52.236;5.178;2022-11-10T16:08:20;8.98;;;3.00;;
58974;SDS011;44751;52.236;5.178;2022-11-10T16:10:48;11.25;;;2.78;;
58974;SDS011;44751;52.236;5.178;2022-11-10T16:13:24;9.25;;;3.30;;
58974;SDS011;44751;52.236;5.178;2022-11-10T16:15:53;9.68;;;2.65;;
58974;SDS011;44751;52.236;5.178;2022-11-10T16:18:25;13.20;;;3.20;;
58974;SDS011;44751;52.236;5.178;2022-11-10T16:20:54;11.45;;;2.58;;
58974;SDS011;44751;52.236;5.178;2022-11-10T16:23:21;7.03;;;2.28;;
58974;SDS011;44751;52.236;5.178;2022-11-10T16:25:49;14.63;;;3.03;;
58974;SDS011;44751;52.236;5.178;2022-11-10T16:28:25;10.18;;;2.90;;
58974;SDS011;44751;52.236;5.178;2022-11-10T16:30:53;12.30;;;2.95;;
58974;SDS011;44751;52.236;5.178;2022-11-10T16:33:22;10.45;;;2.15;;
58974;SDS011;44751;52.236;5.178;2022-11-10T16:35:52;11.70;;;3.15;;
58974;SDS011;44751;52.236;5.178;2022-11-10T16:38:28;6.95;;;2.63;;
58974;SDS011;44751;52.236;5.178;2022-11-10T16:41:00;8.63;;;2.60;;
58974;SDS011;44751;52.236;5.178;2022-11-10T16:43:28;10.38;;;2.55;;
58974;SDS011;44751;52.236;5.178;2022-11-10T16:46:02;9.73;;;2.53;;
58974;SDS011;44751;52.236;5.178;2022-11-10T16:48:38;6.75;;;2.50;;
58974;SDS011;44751;52.236;5.178;2022-11-10T16:51:17;11.07;;;2.63;;
58974;SDS011;44751;52.236;5.178;2022-11-10T16:53:44;9.60;;;2.88;;
58974;SDS011;44751;52.236;5.178;2022-11-10T16:56:13;8.13;;;2.42;;
58974;SDS011;44751;52.236;5.178;2022-11-10T16:58:42;6.78;;;2.40;;
58974;SDS011;44751;52.236;5.178;2022-11-10T17:01:10;7.57;;;2.22;;